createdAt,value
2018-04-22T00:01:40.691Z,100373.55
2018-04-22T00:04:09.129Z,100376.58
2018-04-22T00:06:37.463Z,100373.45
2018-04-22T00:09:06.729Z,100375.38
2018-04-22T00:11:35.069Z,100368.94
2018-04-22T00:14:03.411Z,100363.75
2018-04-22T00:16:31.806Z,100363.20
2018-04-22T00:19:00.168Z,100362.25
2018-04-22T00:21:28.610Z,100361.70
2018-04-22T00:23:56.964Z,100357.67
2018-04-22T00:26:25.362Z,100355.02
2018-04-22T00:28:53.689Z,100354.80
2018-04-22T00:31:22.077Z,100352.81
2018-04-22T00:33:50.426Z,100347.13
2018-04-22T00:36:18.790Z,100355.77
2018-04-22T00:38:47.144Z,100346.80
2018-04-22T00:41:15.483Z,100342.73
2018-04-22T00:43:43.828Z,100339.77
2018-04-22T00:46:12.197Z,100344.10
2018-04-22T00:48:40.555Z,100339.11
2018-04-22T00:51:08.942Z,100335.61
2018-04-22T00:53:49.190Z,100340.56
2018-04-22T00:56:17.561Z,100334.02
2018-04-22T00:58:45.953Z,100331.58
2018-04-22T01:01:14.286Z,100330.16
2018-04-22T01:03:42.651Z,100330.28
2018-04-22T01:06:11.029Z,100329.23
2018-04-22T01:08:39.367Z,100322.00
2018-04-22T01:11:07.799Z,100325.92
2018-04-22T01:13:37.599Z,100326.47
2018-04-22T01:16:06.021Z,100334.14
2018-04-22T01:18:34.432Z,100337.34
2018-04-22T01:21:02.996Z,100335.15
2018-04-22T01:23:31.368Z,100335.73
2018-04-22T01:25:59.711Z,100333.87
2018-04-22T01:28:28.100Z,100333.75
2018-04-22T01:30:56.523Z,100333.58
2018-04-22T01:33:24.847Z,100337.20
2018-04-22T01:35:53.208Z,100327.59
2018-04-22T01:38:21.572Z,100327.29
2018-04-22T01:40:50.004Z,100328.27
2018-04-22T01:43:18.462Z,100326.63
2018-04-22T01:45:46.795Z,100321.14
2018-04-22T01:48:15.144Z,100322.14
2018-04-22T01:50:43.542Z,100321.86
2018-04-22T01:53:12.116Z,100323.74
2018-04-22T01:55:40.529Z,100318.63
2018-04-22T01:58:08.882Z,100318.45
2018-04-22T02:00:37.246Z,100316.84
2018-04-22T02:03:05.583Z,100315.27
2018-04-22T02:05:33.940Z,100320.42
2018-04-22T02:08:02.268Z,100312.11
2018-04-22T02:10:30.623Z,100323.56
2018-04-22T02:12:58.952Z,100322.75
2018-04-22T02:15:27.299Z,100315.36
2018-04-22T02:17:55.633Z,100317.50
2018-04-22T02:20:23.978Z,100321.70
2018-04-22T02:22:52.445Z,100322.63
2018-04-22T02:25:20.946Z,100314.36
2018-04-22T02:27:49.344Z,100317.24
2018-04-22T02:30:17.689Z,100314.71
2018-04-22T02:32:46.017Z,100315.09
2018-04-22T02:35:14.397Z,100311.07
2018-04-22T02:37:42.730Z,100318.72
2018-04-22T02:40:11.153Z,100309.05
2018-04-22T02:42:39.788Z,100309.41
2018-04-22T02:45:08.163Z,100308.63
2018-04-22T02:47:36.504Z,100308.35
2018-04-22T02:50:04.884Z,100306.09
2018-04-22T02:52:33.585Z,100300.06
2018-04-22T02:55:01.931Z,100302.89
2018-04-22T02:57:30.337Z,100304.44
2018-04-22T02:59:58.670Z,100300.81
2018-04-22T03:02:28.947Z,100302.70
2018-04-22T03:04:57.401Z,100298.02
2018-04-22T03:07:25.844Z,100297.72
2018-04-22T03:09:54.179Z,100296.64
2018-04-22T03:12:22.539Z,100294.27
2018-04-22T03:14:50.892Z,100295.38
2018-04-22T03:17:19.232Z,100296.30
2018-04-22T03:19:47.700Z,100287.73
2018-04-22T03:22:16.096Z,100282.70
2018-04-22T03:24:44.476Z,100282.80
2018-04-22T03:27:12.827Z,100279.35
2018-04-22T03:29:41.875Z,100280.96
2018-04-22T03:32:10.287Z,100276.97
2018-04-22T03:34:38.661Z,100285.70
2018-04-22T03:37:07.219Z,100278.59
2018-04-22T03:39:35.571Z,100279.80
2018-04-22T03:42:03.990Z,100273.34
2018-04-22T03:44:35.953Z,100278.30
2018-04-22T03:47:04.299Z,100280.33
2018-04-22T03:49:32.650Z,100289.56
2018-04-22T03:52:01.013Z,100282.07
2018-04-22T03:54:29.748Z,100281.79
2018-04-22T03:56:58.080Z,100279.80
2018-04-22T03:59:26.532Z,100282.73
2018-04-22T04:01:54.849Z,100280.34
2018-04-22T04:04:23.293Z,100281.29
2018-04-22T04:06:51.675Z,100284.48
2018-04-22T04:09:20.052Z,100277.37
2018-04-22T04:11:48.408Z,100279.92
2018-04-22T04:14:16.858Z,100280.13
2018-04-22T04:16:45.194Z,100282.70
2018-04-22T04:19:25.422Z,100276.20
2018-04-22T04:22:05.791Z,100282.34
2018-04-22T04:27:47.835Z,100273.42
2018-04-22T04:30:16.177Z,100282.75
2018-04-22T04:32:44.513Z,100283.34
2018-04-22T04:35:12.869Z,100280.06
2018-04-22T04:37:41.195Z,100282.29
2018-04-22T04:40:09.561Z,100284.00
2018-04-22T04:42:37.888Z,100277.30
2018-04-22T04:45:06.231Z,100281.43
2018-04-22T04:47:34.566Z,100282.72
2018-04-22T04:50:02.969Z,100283.55
2018-04-22T04:52:31.332Z,100282.83
2018-04-22T04:54:59.691Z,100287.87
2018-04-22T04:57:28.047Z,100284.65
2018-04-22T04:59:56.527Z,100286.31
2018-04-22T05:02:25.817Z,100292.22
2018-04-22T05:04:54.152Z,100292.80
2018-04-22T05:07:30.291Z,100286.70
2018-04-22T05:09:58.649Z,100296.25
2018-04-22T05:12:27.004Z,100289.91
2018-04-22T05:14:55.362Z,100285.95
2018-04-22T05:17:23.751Z,100286.17
2018-04-22T05:19:52.163Z,100284.16
2018-04-22T05:22:20.502Z,100289.75
2018-04-22T05:24:48.844Z,100290.95
2018-04-22T05:27:17.191Z,100286.32
2018-04-22T05:29:45.633Z,100292.66
2018-04-22T05:32:14.020Z,100291.66
2018-04-22T05:34:42.362Z,100289.25
2018-04-22T05:37:10.702Z,100283.78
2018-04-22T05:39:39.105Z,100287.38
2018-04-22T05:42:07.493Z,100287.14
2018-04-22T05:44:35.864Z,100290.79
2018-04-22T05:47:04.345Z,100293.08
2018-04-22T05:49:32.723Z,100283.58
2018-04-22T05:52:01.075Z,100284.37
2018-04-22T05:54:29.403Z,100284.77
2018-04-22T05:56:57.745Z,100284.52
2018-04-22T05:59:26.103Z,100286.34
2018-04-22T06:01:54.432Z,100280.12
2018-04-22T06:04:22.855Z,100277.09
2018-04-22T06:06:51.211Z,100274.05
2018-04-22T06:09:19.557Z,100275.91
2018-04-22T06:11:47.916Z,100269.62
2018-04-22T06:14:16.234Z,100264.54
2018-04-22T06:16:44.598Z,100264.09
2018-04-22T06:19:12.934Z,100265.76
2018-04-22T06:21:41.291Z,100258.31
2018-04-22T06:24:09.628Z,100255.15
2018-04-22T06:26:37.970Z,100260.72
2018-04-22T06:29:06.325Z,100253.70
2018-04-22T06:31:34.652Z,100245.12
2018-04-22T06:34:02.989Z,100246.53
2018-04-22T06:36:31.351Z,100233.58
2018-04-22T06:38:59.688Z,100240.28
2018-04-22T06:41:28.123Z,100231.58
2018-04-22T06:43:56.473Z,100235.61
2018-04-22T06:46:24.812Z,100233.02
2018-04-22T06:48:53.154Z,100230.55
2018-04-22T06:51:21.507Z,100235.61
2018-04-22T06:53:49.872Z,100237.33
2018-04-22T06:56:18.219Z,100228.80
2018-04-22T06:58:46.576Z,100234.79
2018-04-22T07:01:15.415Z,100218.12
2018-04-22T07:03:43.761Z,100223.47
2018-04-22T07:06:12.089Z,100219.75
2018-04-22T07:08:40.462Z,100217.55
2018-04-22T07:11:08.835Z,100215.73
2018-04-22T07:13:37.212Z,100214.68
2018-04-22T07:16:05.535Z,100216.11
2018-04-22T07:18:33.882Z,100209.63
2018-04-22T07:21:03.426Z,100207.94
2018-04-22T07:23:31.801Z,100210.33
2018-04-22T07:26:00.196Z,100209.48
2018-04-22T07:28:28.532Z,100209.77
2018-04-22T07:30:56.917Z,100203.46
2018-04-22T07:33:25.253Z,100198.76
2018-04-22T07:35:53.597Z,100200.52
2018-04-22T07:38:21.917Z,100198.73
2018-04-22T07:40:50.326Z,100207.11
2018-04-22T07:43:18.694Z,100198.48
2018-04-22T07:45:47.050Z,100208.77
2018-04-22T07:48:15.462Z,100207.44
2018-04-22T07:50:43.853Z,100213.01
2018-04-22T07:53:12.246Z,100209.41
2018-04-22T07:55:40.639Z,100203.77
2018-04-22T07:58:08.967Z,100207.47
2018-04-22T08:00:37.415Z,100199.02
2018-04-22T08:03:05.773Z,100204.53
2018-04-22T08:05:34.815Z,100196.61
2018-04-22T08:08:03.157Z,100191.83
2018-04-22T08:10:31.518Z,100183.98
2018-04-22T08:12:59.862Z,100180.09
2018-04-22T08:15:28.199Z,100183.87
2018-04-22T08:17:56.547Z,100192.13
2018-04-22T08:20:24.876Z,100189.09
2018-04-22T08:22:53.251Z,100186.23
2018-04-22T08:25:21.644Z,100178.50
2018-04-22T08:27:49.985Z,100174.71
2018-04-22T08:30:18.425Z,100173.34
2018-04-22T08:32:46.770Z,100175.02
2018-04-22T08:35:15.104Z,100171.59
2018-04-22T08:37:43.544Z,100171.85
2018-04-22T08:40:11.870Z,100165.17
2018-04-22T08:42:40.236Z,100168.85
2018-04-22T08:45:08.576Z,100167.05
2018-04-22T08:47:36.911Z,100164.67
2018-04-22T08:50:05.237Z,100158.45
2018-04-22T08:52:33.587Z,100154.20
2018-04-22T08:55:01.928Z,100154.14
2018-04-22T08:57:30.320Z,100154.69
2018-04-22T08:59:58.711Z,100153.18
2018-04-22T09:02:27.052Z,100153.05
2018-04-22T09:04:55.392Z,100156.57
2018-04-22T09:07:23.728Z,100147.74
2018-04-22T09:09:52.058Z,100148.33
2018-04-22T09:12:20.577Z,100139.97
2018-04-22T09:14:48.914Z,100134.66
2018-04-22T09:17:17.258Z,100134.27
2018-04-22T09:19:45.670Z,100132.67
2018-04-22T09:22:13.994Z,100125.89
2018-04-22T09:24:42.329Z,100126.91
2018-04-22T09:27:10.692Z,100129.86
2018-04-22T09:29:39.008Z,100129.11
2018-04-22T09:32:12.811Z,100135.14
2018-04-22T09:34:41.182Z,100113.83
2018-04-22T09:37:09.506Z,100118.08
2018-04-22T09:39:37.905Z,100112.89
2018-04-22T09:42:06.279Z,100119.17
2018-04-22T09:44:34.708Z,100118.27
2018-04-22T09:47:03.047Z,100116.80
2018-04-22T09:49:31.393Z,100113.95
2018-04-22T09:51:59.737Z,100106.66
2018-04-22T09:54:28.189Z,100111.61
2018-04-22T09:56:56.542Z,100102.84
2018-04-22T09:59:24.852Z,100104.84
2018-04-22T10:01:53.371Z,100099.43
2018-04-22T10:04:31.704Z,100093.25
2018-04-22T10:07:00.059Z,100087.13
2018-04-22T10:09:28.387Z,100087.61
2018-04-22T10:11:56.725Z,100087.78
2018-04-22T10:14:25.118Z,100083.92
2018-04-22T10:16:53.472Z,100079.59
2018-04-22T10:19:21.902Z,100069.52
2018-04-22T10:21:50.290Z,100076.95
2018-04-22T10:24:18.629Z,100075.66
2018-04-22T10:26:47.081Z,100067.25
2018-04-22T10:29:15.433Z,100058.47
2018-04-22T10:31:43.771Z,100057.59
2018-04-22T10:34:12.148Z,100049.22
2018-04-22T10:36:40.490Z,100047.77
2018-04-22T10:39:08.949Z,100044.11
2018-04-22T10:41:37.291Z,100043.73
2018-04-22T10:44:05.665Z,100041.28
2018-04-22T10:46:34.075Z,100030.73
2018-04-22T10:49:02.407Z,100036.31
2018-04-22T10:51:30.751Z,100025.73
2018-04-22T10:53:59.159Z,100031.36
2018-04-22T10:56:27.493Z,100029.12
2018-04-22T10:58:55.826Z,100021.07
2018-04-22T11:01:24.288Z,100017.95
2018-04-22T11:03:52.740Z,100021.06
2018-04-22T11:06:21.072Z,100010.21
2018-04-22T11:08:51.938Z,100010.73
2018-04-22T11:11:20.245Z,99999.74
2018-04-22T11:13:48.592Z,100002.87
2018-04-22T11:16:16.920Z,99998.83
2018-04-22T11:18:45.274Z,100000.34
2018-04-22T11:21:13.610Z,99998.97
2018-04-22T11:23:41.931Z,99996.30
2018-04-22T11:26:10.255Z,99996.34
2018-04-22T11:28:38.583Z,99995.75
2018-04-22T11:31:06.995Z,99995.08
2018-04-22T11:33:35.485Z,99990.78
2018-04-22T11:36:03.876Z,99992.23
2018-04-22T11:38:32.216Z,99986.56
2018-04-22T11:41:00.640Z,99986.02
2018-04-22T11:43:29.048Z,99984.44
2018-04-22T11:45:57.382Z,99982.08
2018-04-22T11:48:25.696Z,99983.47
2018-04-22T11:50:54.227Z,99979.52
2018-04-22T11:53:22.765Z,99980.07
2018-04-22T11:55:51.087Z,99974.91
2018-04-22T11:58:19.415Z,99977.22
2018-04-22T12:00:47.759Z,99972.27
2018-04-22T12:03:16.076Z,99967.77
2018-04-22T12:05:44.398Z,99966.16
2018-04-22T12:08:12.704Z,99964.92
2018-04-22T12:10:41.081Z,99967.42
2018-04-22T12:13:09.450Z,99959.85
2018-04-22T12:15:37.810Z,99954.09
2018-04-22T12:18:06.166Z,99958.59
2018-04-22T12:20:34.512Z,99960.76
2018-04-22T12:23:02.853Z,99957.17
2018-04-22T12:25:32.087Z,99957.66
2018-04-22T12:28:00.441Z,99956.88
2018-04-22T12:30:28.772Z,99950.66
2018-04-22T12:32:57.103Z,99950.94
2018-04-22T12:35:25.425Z,99944.56
2018-04-22T12:37:53.803Z,99941.11
2018-04-22T12:40:22.146Z,99939.87
2018-04-22T12:42:50.612Z,99938.39
2018-04-22T12:45:18.895Z,99938.77
2018-04-22T12:47:47.303Z,99928.86
2018-04-22T12:50:17.508Z,99937.06
2018-04-22T12:52:45.830Z,99928.91
2018-04-22T12:55:14.251Z,99934.76
2018-04-22T12:57:42.640Z,99928.62
2018-04-22T13:00:11.034Z,99918.78
2018-04-22T13:02:39.420Z,99923.15
2018-04-22T13:05:07.741Z,99907.37
2018-04-22T13:07:36.068Z,99909.01
2018-04-22T13:10:04.376Z,99900.60
2018-04-22T13:12:32.729Z,99898.28
2018-04-22T13:15:01.051Z,99894.43
2018-04-22T13:17:29.348Z,99895.25
2018-04-22T13:19:57.800Z,99884.90
2018-04-22T13:22:26.258Z,99882.83
2018-04-22T13:24:54.659Z,99880.91
2018-04-22T13:27:23.023Z,99876.56
2018-04-22T13:29:51.365Z,99875.12
2018-04-22T13:32:19.823Z,99866.22
2018-04-22T13:34:48.168Z,99864.59
2018-04-22T13:37:16.537Z,99854.59
2018-04-22T13:39:44.868Z,99863.12
2018-04-22T13:42:13.179Z,99861.77
2018-04-22T13:44:41.514Z,99854.29
2018-04-22T13:47:09.840Z,99851.91
2018-04-22T13:49:38.155Z,99851.72
2018-04-22T13:52:06.495Z,99852.24
2018-04-22T13:54:34.848Z,99848.89
2018-04-22T13:57:03.166Z,99846.80
2018-04-22T13:59:31.491Z,99844.31
2018-04-22T14:01:59.823Z,99840.20
2018-04-22T14:04:28.158Z,99844.95
2018-04-22T14:06:56.477Z,99842.71
2018-04-22T14:09:24.860Z,99839.80
2018-04-22T14:11:53.282Z,99837.18
2018-04-22T14:14:21.597Z,99828.55
2018-04-22T14:16:50.045Z,99831.87
2018-04-22T14:19:18.439Z,99827.95
2018-04-22T14:21:46.823Z,99822.47
2018-04-22T14:24:15.256Z,99814.84
2018-04-22T14:26:43.685Z,99813.13
2018-04-22T14:29:11.989Z,99813.62
2018-04-22T14:31:40.447Z,99806.14
2018-04-22T14:34:08.730Z,99802.43
2018-04-22T14:36:37.385Z,99801.67
2018-04-22T14:39:05.747Z,99803.44
2018-04-22T14:41:34.166Z,99800.84
2018-04-22T14:44:14.441Z,99795.91
2018-04-22T14:46:42.831Z,99801.10
2018-04-22T14:49:11.164Z,99793.92
2018-04-22T14:51:39.483Z,99788.23
2018-04-22T14:54:07.810Z,99775.66
2018-04-22T14:56:36.166Z,99775.52
2018-04-22T14:59:04.491Z,99775.22
2018-04-22T15:01:33.173Z,99782.20
2018-04-22T15:04:01.519Z,99772.08
2018-04-22T15:06:29.851Z,99781.09
2018-04-22T15:08:58.196Z,99777.88
2018-04-22T15:11:26.624Z,99777.42
2018-04-22T15:13:54.987Z,99773.80
2018-04-22T15:16:23.326Z,99763.30
2018-04-22T15:18:51.805Z,99764.50
2018-04-22T15:21:20.606Z,99762.65
2018-04-22T15:23:48.976Z,99759.41
2018-04-22T15:26:17.330Z,99762.81
2018-04-22T15:28:45.861Z,99766.27
2018-04-22T15:31:14.232Z,99767.88
2018-04-22T15:33:42.564Z,99756.21
2018-04-22T15:36:10.879Z,99752.27
2018-04-22T15:38:40.212Z,99752.75
2018-04-22T15:41:08.549Z,99755.38
2018-04-22T15:43:36.933Z,99755.78
2018-04-22T15:46:05.243Z,99748.77
2018-04-22T15:48:33.563Z,99745.62
2018-04-22T15:51:01.906Z,99749.75
2018-04-22T15:53:30.236Z,99743.42
2018-04-22T15:55:58.559Z,99742.04
2018-04-22T15:58:26.876Z,99740.03
2018-04-22T16:00:55.218Z,99741.77
2018-04-22T16:03:23.538Z,99738.08
2018-04-22T16:05:51.864Z,99733.34
2018-04-22T16:08:20.216Z,99729.38
2018-04-22T16:10:48.609Z,99727.06
2018-04-22T16:13:16.960Z,99728.75
2018-04-22T16:15:45.316Z,99723.02
2018-04-22T16:18:13.659Z,99716.77
2018-04-22T16:20:41.996Z,99714.83
2018-04-22T16:23:10.296Z,99709.72
2018-04-22T16:25:38.631Z,99712.42
2018-04-22T16:28:06.946Z,99718.34
2018-04-22T16:30:35.260Z,99715.20
2018-04-22T16:33:03.591Z,99715.31
2018-04-22T16:35:31.912Z,99714.20
2018-04-22T16:38:00.231Z,99709.67
2018-04-22T16:40:28.544Z,99705.48
2018-04-22T16:42:56.872Z,99707.06
2018-04-22T16:45:25.181Z,99710.81
2018-04-22T16:47:53.511Z,99710.91
2018-04-22T16:50:21.831Z,99710.58
2018-04-22T16:52:50.145Z,99709.34
2018-04-22T16:55:18.489Z,99705.58
2018-04-22T16:57:46.819Z,99702.84
2018-04-22T17:00:15.136Z,99708.70
2018-04-22T17:02:43.484Z,99707.16
2018-04-22T17:05:11.811Z,99708.66
2018-04-22T17:07:40.139Z,99712.09
2018-04-22T17:10:08.463Z,99707.43
2018-04-22T17:12:36.786Z,99706.52
2018-04-22T17:15:05.112Z,99706.56
2018-04-22T17:17:33.462Z,99708.51
2018-04-22T17:20:01.806Z,99698.86
2018-04-22T17:22:30.197Z,99703.89
2018-04-22T17:24:58.522Z,99702.87
2018-04-22T17:27:26.844Z,99701.45
2018-04-22T17:29:55.190Z,99708.23
2018-04-22T17:32:23.523Z,99711.05
2018-04-22T17:34:51.856Z,99711.33
2018-04-22T17:37:32.628Z,99708.77
2018-04-22T17:40:02.900Z,99714.73
2018-04-22T17:42:36.683Z,99716.26
2018-04-22T17:45:05.007Z,99720.31
2018-04-22T17:47:33.349Z,99720.07
2018-04-22T17:50:01.669Z,99719.52
2018-04-22T17:52:29.974Z,99719.57
2018-04-22T17:54:58.288Z,99719.64
2018-04-22T17:57:26.646Z,99713.71
2018-04-22T17:59:55.060Z,99714.61
2018-04-22T18:02:23.390Z,99710.75
2018-04-22T18:04:51.715Z,99708.14
2018-04-22T18:07:21.978Z,99712.50
2018-04-22T18:09:50.385Z,99710.85
2018-04-22T18:12:18.721Z,99714.28
2018-04-22T18:14:48.202Z,99715.53
2018-04-22T18:17:16.576Z,99715.53
2018-04-22T18:19:44.917Z,99714.31
2018-04-22T18:22:13.265Z,99717.11
2018-04-22T18:24:41.574Z,99712.11
2018-04-22T18:27:09.899Z,99713.67
2018-04-22T18:29:38.235Z,99720.80
2018-04-22T18:32:06.535Z,99719.42
2018-04-22T18:34:34.861Z,99718.66
2018-04-22T18:37:03.177Z,99716.99
2018-04-22T18:39:31.503Z,99721.71
2018-04-22T18:42:01.030Z,99722.30
2018-04-22T18:44:29.371Z,99719.11
2018-04-22T18:46:57.690Z,99715.20
2018-04-22T18:49:25.999Z,99716.65
2018-04-22T18:51:54.498Z,99715.20
2018-04-22T18:54:22.857Z,99722.31
2018-04-22T18:56:51.223Z,99716.52
2018-04-22T18:59:19.547Z,99719.16
2018-04-22T19:01:47.854Z,99725.56
2018-04-22T19:04:16.346Z,99712.82
2018-04-22T19:06:45.615Z,99716.18
2018-04-22T19:09:13.933Z,99713.42
2018-04-22T19:11:42.254Z,99714.41
2018-04-22T19:14:10.568Z,99717.92
2018-04-22T19:16:38.957Z,99727.09
2018-04-22T19:19:07.281Z,99721.75
2018-04-22T19:21:35.622Z,99728.03
2018-04-22T19:24:03.934Z,99724.98
2018-04-22T19:26:32.253Z,99720.20
2018-04-22T19:29:00.565Z,99724.59
2018-04-22T19:31:28.920Z,99725.06
2018-04-22T19:33:57.223Z,99726.44
2018-04-22T19:36:25.545Z,99728.67
2018-04-22T19:38:53.893Z,99725.76
2018-04-22T19:41:22.222Z,99723.75
2018-04-22T19:43:50.522Z,99722.68
2018-04-22T19:46:18.851Z,99723.72
2018-04-22T19:48:47.168Z,99718.66
2018-04-22T19:51:15.511Z,99724.11
2018-04-22T19:53:43.829Z,99722.73
2018-04-22T19:56:12.150Z,99720.37
2018-04-22T19:58:40.507Z,99722.89
2018-04-22T20:01:08.831Z,99722.25
2018-04-22T20:03:37.192Z,99727.23
2018-04-22T20:06:05.500Z,99723.31
2018-04-22T20:08:33.856Z,99720.17
2018-04-22T20:11:02.188Z,99725.19
2018-04-22T20:13:30.492Z,99722.60
2018-04-22T20:15:58.939Z,99723.61
2018-04-22T20:18:27.283Z,99724.42
2018-04-22T20:20:55.813Z,99726.13
2018-04-22T20:23:24.178Z,99725.03
2018-04-22T20:25:52.505Z,99718.72
2018-04-22T20:28:20.887Z,99721.31
2018-04-22T20:30:49.210Z,99716.02
2018-04-22T20:33:17.520Z,99713.61
2018-04-22T20:35:45.847Z,99715.36
2018-04-22T20:38:14.166Z,99721.38
2018-04-22T20:40:42.490Z,99716.63
2018-04-22T20:43:10.821Z,99710.23
2018-04-22T20:45:39.162Z,99721.89
2018-04-22T20:48:07.493Z,99714.23
2018-04-22T20:50:36.162Z,99721.31
2018-04-22T20:53:04.482Z,99719.51
2018-04-22T20:55:32.795Z,99717.23
2018-04-22T20:58:01.110Z,99710.77
2018-04-22T21:00:29.449Z,99712.59
2018-04-22T21:02:57.769Z,99717.13
2018-04-22T21:05:26.128Z,99708.62
2018-04-22T21:07:54.460Z,99708.96
2018-04-22T21:10:22.778Z,99707.47
2018-04-22T21:12:51.101Z,99701.98
2018-04-22T21:15:19.436Z,99704.65
2018-04-22T21:17:53.679Z,99701.01
2018-04-22T21:20:25.804Z,99702.20
2018-04-22T21:22:54.118Z,99702.98
2018-04-22T21:25:22.491Z,99699.43
2018-04-22T21:27:50.802Z,99696.03
2018-04-22T21:30:19.138Z,99693.69
2018-04-22T21:32:47.470Z,99695.52
2018-04-22T21:35:15.787Z,99698.56
2018-04-22T21:37:44.146Z,99700.38
2018-04-22T21:40:12.469Z,99701.34
2018-04-22T21:42:40.832Z,99697.96
2018-04-22T21:45:09.135Z,99695.89
2018-04-22T21:47:37.476Z,99706.80
2018-04-22T21:50:05.831Z,99703.55
2018-04-22T21:52:34.161Z,99707.01
2018-04-22T21:55:02.483Z,99701.46
2018-04-22T21:57:30.801Z,99701.80
2018-04-22T21:59:59.159Z,99703.73
2018-04-22T22:02:27.502Z,99701.46
2018-04-22T22:04:55.839Z,99701.64
2018-04-22T22:07:24.145Z,99693.36
2018-04-22T22:09:52.473Z,99698.49
2018-04-22T22:12:20.819Z,99700.27
2018-04-22T22:14:49.156Z,99696.25
2018-04-22T22:17:17.447Z,99697.99
2018-04-22T22:19:45.789Z,99696.34
2018-04-22T22:22:14.155Z,99695.10
2018-04-22T22:24:42.473Z,99691.42
2018-04-22T22:27:10.799Z,99688.03
2018-04-22T22:29:39.169Z,99684.31
2018-04-22T22:32:07.497Z,99678.84
2018-04-22T22:34:35.821Z,99683.48
2018-04-22T22:37:04.175Z,99676.31
2018-04-22T22:39:32.512Z,99687.16
2018-04-22T22:42:00.828Z,99678.24
2018-04-22T22:44:29.161Z,99686.20
2018-04-22T22:46:57.526Z,99683.95
2018-04-22T22:49:25.869Z,99683.77
2018-04-22T22:51:54.196Z,99681.45
2018-04-22T22:54:22.525Z,99683.78
2018-04-22T22:56:50.872Z,99675.92
2018-04-22T22:59:19.211Z,99674.95
2018-04-22T23:01:47.589Z,99674.31
2018-04-22T23:04:15.907Z,99676.00
2018-04-22T23:06:44.241Z,99672.05
2018-04-22T23:09:12.565Z,99668.98
2018-04-22T23:11:40.927Z,99662.22
2018-04-22T23:14:09.265Z,99660.91
2018-04-22T23:16:37.616Z,99662.44
2018-04-22T23:19:05.948Z,99652.63
2018-04-22T23:21:34.262Z,99650.55
2018-04-22T23:24:02.607Z,99647.72
2018-04-22T23:26:30.955Z,99651.16
2018-04-22T23:28:59.287Z,99650.91
2018-04-22T23:31:27.609Z,99642.09
2018-04-22T23:33:56.032Z,99649.04
2018-04-22T23:36:24.360Z,99652.24
2018-04-22T23:38:52.692Z,99649.83
2018-04-22T23:41:21.021Z,99647.69
2018-04-22T23:43:49.365Z,99664.44
2018-04-22T23:46:17.676Z,99697.05
2018-04-22T23:48:46.018Z,99699.05
2018-04-22T23:51:14.354Z,99681.79
2018-04-22T23:53:44.548Z,99710.17
2018-04-22T23:56:12.888Z,99697.27
2018-04-22T23:58:41.235Z,99683.50
